sensor_id;sensor_type;location;lat;lon;timestamp;pressure;altitude;pressure_sealevel;temperature;humidity
36726;BME280;44936;52.086;5.150;2023-08-31T00:00:44;100738.97;;;12.48;100.00
36726;BME280;44936;52.086;5.150;2023-08-31T00:03:11;100697.75;;;12.45;100.00
36726;BME280;44936;52.086;5.150;2023-08-31T00:05:41;100667.13;;;12.40;100.00
36726;BME280;44936;52.086;5.150;2023-08-31T00:08:07;100673.13;;;12.59;100.00
36726;BME280;44936;52.086;5.150;2023-08-31T00:10:34;100643.31;;;12.57;100.00
36726;BME280;44936;52.086;5.150;2023-08-31T00:13:00;100608.31;;;12.45;100.00
36726;BME280;44936;52.086;5.150;2023-08-31T00:15:25;100591.63;;;12.51;100.00
36726;BME280;44936;52.086;5.150;2023-08-31T00:17:51;100578.44;;;12.53;100.00
36726;BME280;44936;52.086;5.150;2023-08-31T00:20:16;100567.88;;;12.59;100.00
36726;BME280;44936;52.086;5.150;2023-08-31T00:22:42;100559.06;;;12.61;100.00
36726;BME280;44936;52.086;5.150;2023-08-31T00:25:08;100566.06;;;12.62;100.00
36726;BME280;44936;52.086;5.150;2023-08-31T00:27:34;100536.25;;;12.65;100.00
36726;BME280;44936;52.086;5.150;2023-08-31T00:30:03;100531.84;;;12.65;100.00
36726;BME280;44936;52.086;5.150;2023-08-31T00:32:29;100524.81;;;12.67;100.00
36726;BME280;44936;52.086;5.150;2023-08-31T00:34:54;100528.28;;;12.72;100.00
36726;BME280;44936;52.086;5.150;2023-08-31T00:37:19;100498.59;;;12.58;100.00
36726;BME280;44936;52.086;5.150;2023-08-31T00:39:46;100537.91;;;12.73;100.00
36726;BME280;44936;52.086;5.150;2023-08-31T00:42:13;100537.06;;;12.70;100.00
36726;BME280;44936;52.086;5.150;2023-08-31T00:44:39;100552.81;;;12.74;100.00
36726;BME280;44936;52.086;5.150;2023-08-31T00:47:04;100566.75;;;12.83;100.00
36726;BME280;44936;52.086;5.150;2023-08-31T00:49:30;100575.56;;;12.82;100.00
36726;BME280;44936;52.086;5.150;2023-08-31T00:51:55;100591.28;;;12.85;100.00
36726;BME280;44936;52.086;5.150;2023-08-31T00:54:22;100619.28;;;12.95;100.00
36726;BME280;44936;52.086;5.150;2023-08-31T00:56:53;100635.03;;;12.99;100.00
36726;BME280;44936;52.086;5.150;2023-08-31T00:59:18;100632.47;;;12.92;100.00
36726;BME280;44936;52.086;5.150;2023-08-31T01:02:02;100643.84;;;12.94;100.00
36726;BME280;44936;52.086;5.150;2023-08-31T01:04:50;100639.47;;;12.94;100.00
36726;BME280;44936;52.086;5.150;2023-08-31T01:07:34;100657.88;;;12.96;100.00
36726;BME280;44936;52.086;5.150;2023-08-31T01:12:50;100664.00;;;12.99;100.00
36726;BME280;44936;52.086;5.150;2023-08-31T01:15:17;100659.59;;;13.00;100.00
36726;BME280;44936;52.086;5.150;2023-08-31T01:17:54;100653.50;;;12.93;100.00
36726;BME280;44936;52.086;5.150;2023-08-31T01:20:31;100655.28;;;12.91;100.00
36726;BME280;44936;52.086;5.150;2023-08-31T01:23:06;100657.06;;;12.91;100.00
36726;BME280;44936;52.086;5.150;2023-08-31T01:25:32;100664.94;;;12.91;100.00
36726;BME280;44936;52.086;5.150;2023-08-31T01:28:01;100653.56;;;12.87;100.00
36726;BME280;44936;52.086;5.150;2023-08-31T01:30:30;100650.97;;;12.84;100.00
36726;BME280;44936;52.086;5.150;2023-08-31T01:32:56;100665.00;;;12.85;100.00
36726;BME280;44936;52.086;5.150;2023-08-31T01:35:22;100672.03;;;12.83;100.00
36726;BME280;44936;52.086;5.150;2023-08-31T01:37:52;100665.03;;;12.83;100.00
36726;BME280;44936;52.086;5.150;2023-08-31T01:40:20;100663.25;;;12.84;100.00
36726;BME280;44936;52.086;5.150;2023-08-31T01:42:48;100664.13;;;12.84;100.00
36726;BME280;44936;52.086;5.150;2023-08-31T01:45:18;100662.38;;;12.80;100.00
36726;BME280;44936;52.086;5.150;2023-08-31T01:47:47;100636.13;;;12.77;100.00
36726;BME280;44936;52.086;5.150;2023-08-31T01:50:12;100636.94;;;12.84;100.00
36726;BME280;44936;52.086;5.150;2023-08-31T01:52:38;100619.50;;;12.70;100.00
36726;BME280;44936;52.086;5.150;2023-08-31T01:55:04;100635.22;;;12.81;100.00
36726;BME280;44936;52.086;5.150;2023-08-31T01:57:30;100633.50;;;12.75;100.00
36726;BME280;44936;52.086;5.150;2023-08-31T01:59:57;100651.94;;;12.74;100.00
36726;BME280;44936;52.086;5.150;2023-08-31T02:02:22;100658.09;;;12.73;100.00
36726;BME280;44936;52.086;5.150;2023-08-31T02:04:47;100652.91;;;12.65;100.00
36726;BME280;44936;52.086;5.150;2023-08-31T02:07:13;100667.78;;;12.66;100.00
36726;BME280;44936;52.086;5.150;2023-08-31T02:09:39;100707.13;;;12.83;100.00
36726;BME280;44936;52.086;5.150;2023-08-31T02:12:04;100730.03;;;12.73;100.00
36726;BME280;44936;52.086;5.150;2023-08-31T02:14:30;100752.00;;;12.65;100.00
36726;BME280;44936;52.086;5.150;2023-08-31T02:16:55;100788.81;;;12.69;100.00
36726;BME280;44936;52.086;5.150;2023-08-31T02:19:20;100838.78;;;12.71;100.00
36726;BME280;44936;52.086;5.150;2023-08-31T02:21:46;100890.56;;;12.69;100.00
36726;BME280;44936;52.086;5.150;2023-08-31T02:24:11;100938.00;;;12.52;100.00
36726;BME280;44936;52.086;5.150;2023-08-31T02:26:37;101011.63;;;12.69;100.00
36726;BME280;44936;52.086;5.150;2023-08-31T02:29:03;101071.31;;;12.64;100.00
36726;BME280;44936;52.086;5.150;2023-08-31T02:31:28;101128.31;;;12.63;100.00
36726;BME280;44936;52.086;5.150;2023-08-31T02:33:54;101175.69;;;12.63;100.00
36726;BME280;44936;52.086;5.150;2023-08-31T02:36:19;101213.38;;;12.59;100.00
36726;BME280;44936;52.086;5.150;2023-08-31T02:38:46;101231.81;;;12.71;100.00
36726;BME280;44936;52.086;5.150;2023-08-31T02:41:15;101213.38;;;12.71;100.00
36726;BME280;44936;52.086;5.150;2023-08-31T02:43:41;101195.84;;;12.72;100.00
36726;BME280;44936;52.086;5.150;2023-08-31T02:46:06;101168.66;;;12.68;100.00
36726;BME280;44936;52.086;5.150;2023-08-31T02:48:32;101165.13;;;12.77;100.00
36726;BME280;44936;52.086;5.150;2023-08-31T02:50:59;101133.56;;;12.59;100.00
36726;BME280;44936;52.086;5.150;2023-08-31T02:53:27;101173.94;;;12.73;100.00
36726;BME280;44936;52.086;5.150;2023-08-31T02:55:54;101186.19;;;12.79;100.00
36726;BME280;44936;52.086;5.150;2023-08-31T02:58:20;101191.47;;;12.66;100.00
36726;BME280;44936;52.086;5.150;2023-08-31T03:00:45;101208.13;;;12.71;100.00
36726;BME280;44936;52.086;5.150;2023-08-31T03:03:15;101214.28;;;12.73;100.00
36726;BME280;44936;52.086;5.150;2023-08-31T03:05:40;101218.66;;;12.76;100.00
36726;BME280;44936;52.086;5.150;2023-08-31T03:08:05;101216.91;;;12.73;100.00
36726;BME280;44936;52.086;5.150;2023-08-31T03:10:31;101220.41;;;12.80;100.00
36726;BME280;44936;52.086;5.150;2023-08-31T03:12:56;101231.81;;;12.79;100.00
36726;BME280;44936;52.086;5.150;2023-08-31T03:15:21;101216.91;;;12.66;100.00
36726;BME280;44936;52.086;5.150;2023-08-31T03:17:47;101235.31;;;12.86;100.00
36726;BME280;44936;52.086;5.150;2023-08-31T03:20:12;101227.44;;;12.86;100.00
36726;BME280;44936;52.086;5.150;2023-08-31T03:22:37;101216.03;;;12.93;100.00
36726;BME280;44936;52.086;5.150;2023-08-31T03:25:03;101189.72;;;12.90;100.00
36726;BME280;44936;52.086;5.150;2023-08-31T03:27:28;101181.81;;;12.90;100.00
36726;BME280;44936;52.086;5.150;2023-08-31T03:29:54;101190.56;;;12.89;100.00
36726;BME280;44936;52.086;5.150;2023-08-31T03:32:19;101200.22;;;12.93;100.00
36726;BME280;44936;52.086;5.150;2023-08-31T03:34:45;101202.88;;;12.93;100.00
36726;BME280;44936;52.086;5.150;2023-08-31T03:37:10;101159.84;;;12.94;100.00
36726;BME280;44936;52.086;5.150;2023-08-31T03:39:35;101124.75;;;12.95;100.00
36726;BME280;44936;52.086;5.150;2023-08-31T03:42:02;101106.31;;;12.89;100.00
36726;BME280;44936;52.086;5.150;2023-08-31T03:44:27;101086.13;;;12.94;100.00
36726;BME280;44936;52.086;5.150;2023-08-31T03:46:53;101069.47;;;12.99;100.00
36726;BME280;44936;52.086;5.150;2023-08-31T03:49:18;101023.78;;;13.05;100.00
36726;BME280;44936;52.086;5.150;2023-08-31T03:51:43;100964.13;;;12.98;100.00
36726;BME280;44936;52.086;5.150;2023-08-31T03:54:09;100931.56;;;13.17;100.00
36726;BME280;44936;52.086;5.150;2023-08-31T03:56:34;100874.47;;;13.16;100.00
36726;BME280;44936;52.086;5.150;2023-08-31T03:59:02;100828.84;;;13.20;100.00
36726;BME280;44936;52.086;5.150;2023-08-31T04:01:28;100782.31;;;13.16;100.00
36726;BME280;44936;52.086;5.150;2023-08-31T04:04:01;100666.78;;;12.83;100.00
36726;BME280;44936;52.086;5.150;2023-08-31T04:06:30;100590.38;;;12.89;100.00
36726;BME280;44936;52.086;5.150;2023-08-31T04:09:04;100507.00;;;12.91;100.00
36726;BME280;44936;52.086;5.150;2023-08-31T04:11:32;100375.53;;;12.82;100.00
36726;BME280;44936;52.086;5.150;2023-08-31T04:13:58;100327.91;;;12.97;100.00
36726;BME280;44936;52.086;5.150;2023-08-31T04:16:27;100215.84;;;12.81;100.00
36726;BME280;44936;52.086;5.150;2023-08-31T04:18:54;100155.25;;;12.85;100.00
36726;BME280;44936;52.086;5.150;2023-08-31T04:21:20;100118.03;;;13.05;100.00
36726;BME280;44936;52.086;5.150;2023-08-31T04:23:45;100055.31;;;12.81;100.00
36726;BME280;44936;52.086;5.150;2023-08-31T04:26:13;100036.44;;;13.05;100.00
36726;BME280;44936;52.086;5.150;2023-08-31T04:28:40;99960.28;;;12.96;100.00
36726;BME280;44936;52.086;5.150;2023-08-31T04:31:07;99948.53;;;13.12;100.00
36726;BME280;44936;52.086;5.150;2023-08-31T04:33:34;99864.63;;;12.97;100.00
36726;BME280;44936;52.086;5.150;2023-08-31T04:36:00;99823.28;;;13.02;100.00
36726;BME280;44936;52.086;5.150;2023-08-31T04:38:25;99809.78;;;13.16;100.00
36726;BME280;44936;52.086;5.150;2023-08-31T04:40:51;99815.59;;;13.31;100.00
36726;BME280;44936;52.086;5.150;2023-08-31T04:43:16;99805.00;;;13.35;100.00
36726;BME280;44936;52.086;5.150;2023-08-31T04:45:42;99707.56;;;13.33;100.00
36726;BME280;44936;52.086;5.150;2023-08-31T04:48:07;99578.41;;;13.05;100.00
36726;BME280;44936;52.086;5.150;2023-08-31T04:50:33;99531.44;;;13.22;100.00
36726;BME280;44936;52.086;5.150;2023-08-31T04:52:58;99372.31;;;13.01;100.00
36726;BME280;44936;52.086;5.150;2023-08-31T04:55:24;99138.03;;;13.03;100.00
36726;BME280;44936;52.086;5.150;2023-08-31T04:57:51;99136.97;;;13.09;100.00
36726;BME280;44936;52.086;5.150;2023-08-31T05:00:16;99032.50;;;12.86;100.00
36726;BME280;44936;52.086;5.150;2023-08-31T05:02:42;98931.88;;;13.02;100.00
36726;BME280;44936;52.086;5.150;2023-08-31T05:05:08;98896.47;;;13.11;100.00
36726;BME280;44936;52.086;5.150;2023-08-31T05:07:34;98804.59;;;13.05;100.00
36726;BME280;44936;52.086;5.150;2023-08-31T05:10:00;98750.53;;;13.18;100.00
36726;BME280;44936;52.086;5.150;2023-08-31T05:12:25;98783.78;;;12.99;100.00
36726;BME280;44936;52.086;5.150;2023-08-31T05:14:50;98824.91;;;13.01;100.00
36726;BME280;44936;52.086;5.150;2023-08-31T05:17:16;98875.28;;;13.14;100.00
36726;BME280;44936;52.086;5.150;2023-08-31T05:19:41;98873.88;;;13.05;100.00
36726;BME280;44936;52.086;5.150;2023-08-31T05:22:07;98851.75;;;12.88;100.00
36726;BME280;44936;52.086;5.150;2023-08-31T05:24:34;98875.66;;;12.82;100.00
36726;BME280;44936;52.086;5.150;2023-08-31T05:27:00;98922.94;;;13.07;100.00
36726;BME280;44936;52.086;5.150;2023-08-31T05:29:25;98885.56;;;12.75;100.00
36726;BME280;44936;52.086;5.150;2023-08-31T05:31:51;98921.59;;;12.96;100.00
36726;BME280;44936;52.086;5.150;2023-08-31T05:34:21;98941.56;;;13.02;100.00
36726;BME280;44936;52.086;5.150;2023-08-31T05:36:47;98911.47;;;12.86;100.00
36726;BME280;44936;52.086;5.150;2023-08-31T05:39:12;98920.97;;;12.90;100.00
36726;BME280;44936;52.086;5.150;2023-08-31T05:41:40;98932.44;;;12.87;100.00
36726;BME280;44936;52.086;5.150;2023-08-31T05:44:08;99029.09;;;13.07;100.00
36726;BME280;44936;52.086;5.150;2023-08-31T05:46:35;99058.81;;;13.11;100.00
36726;BME280;44936;52.086;5.150;2023-08-31T05:49:02;99088.72;;;13.33;100.00
36726;BME280;44936;52.086;5.150;2023-08-31T05:51:34;99057.75;;;13.15;100.00
36726;BME280;44936;52.086;5.150;2023-08-31T05:54:00;99075.88;;;13.25;100.00
36726;BME280;44936;52.086;5.150;2023-08-31T05:56:25;99097.34;;;13.38;100.00
36726;BME280;44936;52.086;5.150;2023-08-31T05:58:51;99070.94;;;13.15;100.00
36726;BME280;44936;52.086;5.150;2023-08-31T06:01:20;99061.22;;;13.17;100.00
36726;BME280;44936;52.086;5.150;2023-08-31T06:03:47;99059.31;;;13.22;100.00
36726;BME280;44936;52.086;5.150;2023-08-31T06:06:12;99066.81;;;13.32;100.00
36726;BME280;44936;52.086;5.150;2023-08-31T06:08:38;99116.59;;;13.64;100.00
36726;BME280;44936;52.086;5.150;2023-08-31T06:11:05;99080.56;;;13.41;100.00
36726;BME280;44936;52.086;5.150;2023-08-31T06:13:31;99095.69;;;13.59;100.00
36726;BME280;44936;52.086;5.150;2023-08-31T06:15:56;99101.72;;;13.63;100.00
36726;BME280;44936;52.086;5.150;2023-08-31T06:18:23;99194.66;;;13.66;100.00
36726;BME280;44936;52.086;5.150;2023-08-31T06:20:51;99205.97;;;13.70;100.00
36726;BME280;44936;52.086;5.150;2023-08-31T06:23:17;99221.78;;;13.68;100.00
36726;BME280;44936;52.086;5.150;2023-08-31T06:25:43;99218.38;;;13.66;100.00
36726;BME280;44936;52.086;5.150;2023-08-31T06:28:10;99214.75;;;13.69;100.00
36726;BME280;44936;52.086;5.150;2023-08-31T06:30:36;99213.09;;;13.66;100.00
36726;BME280;44936;52.086;5.150;2023-08-31T06:33:02;99239.38;;;13.93;100.00
36726;BME280;44936;52.086;5.150;2023-08-31T06:35:28;99223.91;;;13.83;100.00
36726;BME280;44936;52.086;5.150;2023-08-31T06:37:53;99171.13;;;13.62;100.00
36726;BME280;44936;52.086;5.150;2023-08-31T06:40:21;99213.78;;;13.96;100.00
36726;BME280;44936;52.086;5.150;2023-08-31T06:43:12;99212.34;;;14.11;100.00
36726;BME280;44936;52.086;5.150;2023-08-31T06:45:37;99214.88;;;14.14;100.00
36726;BME280;44936;52.086;5.150;2023-08-31T06:48:03;99648.56;;;14.01;100.00
36726;BME280;44936;52.086;5.150;2023-08-31T06:50:29;99466.13;;;13.91;100.00
36726;BME280;44936;52.086;5.150;2023-08-31T06:53:07;99381.38;;;14.02;100.00
36726;BME280;44936;52.086;5.150;2023-08-31T06:55:37;99284.84;;;13.74;100.00
36726;BME280;44936;52.086;5.150;2023-08-31T06:58:04;99310.13;;;14.05;100.00
36726;BME280;44936;52.086;5.150;2023-08-31T07:00:30;99294.06;;;14.11;100.00
36726;BME280;44936;52.086;5.150;2023-08-31T07:02:57;99263.16;;;13.91;100.00
36726;BME280;44936;52.086;5.150;2023-08-31T07:05:26;99218.16;;;13.72;100.00
36726;BME280;44936;52.086;5.150;2023-08-31T07:07:55;99652.88;;;14.03;100.00
36726;BME280;44936;52.086;5.150;2023-08-31T07:10:21;99660.50;;;14.12;100.00
36726;BME280;44936;52.086;5.150;2023-08-31T07:12:47;99648.25;;;14.11;100.00
36726;BME280;44936;52.086;5.150;2023-08-31T07:15:12;99636.72;;;14.15;100.00
36726;BME280;44936;52.086;5.150;2023-08-31T07:17:38;99631.56;;;14.11;100.00
36726;BME280;44936;52.086;5.150;2023-08-31T07:20:03;99623.69;;;14.09;100.00
36726;BME280;44936;52.086;5.150;2023-08-31T07:22:34;99605.94;;;14.16;100.00
36726;BME280;44936;52.086;5.150;2023-08-31T07:24:59;99641.97;;;14.43;100.00
36726;BME280;44936;52.086;5.150;2023-08-31T07:27:43;99652.44;;;14.47;100.00
36726;BME280;44936;52.086;5.150;2023-08-31T07:30:09;99652.09;;;14.29;100.00
36726;BME280;44936;52.086;5.150;2023-08-31T07:32:57;99625.81;;;14.26;100.00
36726;BME280;44936;52.086;5.150;2023-08-31T07:35:25;99675.72;;;14.62;100.00
36726;BME280;44936;52.086;5.150;2023-08-31T07:37:50;99636.25;;;14.59;100.00
36726;BME280;44936;52.086;5.150;2023-08-31T07:40:16;99628.22;;;14.62;100.00
36726;BME280;44936;52.086;5.150;2023-08-31T07:42:41;99594.94;;;14.58;100.00
36726;BME280;44936;52.086;5.150;2023-08-31T07:45:07;99617.00;;;14.82;100.00
36726;BME280;44936;52.086;5.150;2023-08-31T07:47:50;99606.28;;;14.86;100.00
36726;BME280;44936;52.086;5.150;2023-08-31T07:50:16;99560.31;;;14.67;100.00
36726;BME280;44936;52.086;5.150;2023-08-31T07:52:44;99575.19;;;14.69;100.00
36726;BME280;44936;52.086;5.150;2023-08-31T07:55:25;99565.00;;;14.84;100.00
36726;BME280;44936;52.086;5.150;2023-08-31T07:57:56;99487.88;;;14.51;100.00
36726;BME280;44936;52.086;5.150;2023-08-31T08:00:23;99448.53;;;14.43;100.00
36726;BME280;44936;52.086;5.150;2023-08-31T08:02:49;99474.72;;;14.74;100.00
36726;BME280;44936;52.086;5.150;2023-08-31T08:05:34;99328.59;;;14.28;100.00
36726;BME280;44936;52.086;5.150;2023-08-31T08:08:07;99351.50;;;14.76;100.00
36726;BME280;44936;52.086;5.150;2023-08-31T08:10:33;99270.56;;;14.53;100.00
36726;BME280;44936;52.086;5.150;2023-08-31T08:13:18;99295.72;;;14.85;100.00
36726;BME280;44936;52.086;5.150;2023-08-31T08:15:53;99304.22;;;14.92;100.00
36726;BME280;44936;52.086;5.150;2023-08-31T08:18:52;99267.78;;;14.80;100.00
36726;BME280;44936;52.086;5.150;2023-08-31T08:24:34;99202.16;;;14.70;100.00
36726;BME280;44936;52.086;5.150;2023-08-31T08:26:59;99215.69;;;14.85;100.00
36726;BME280;44936;52.086;5.150;2023-08-31T08:29:25;99202.56;;;14.82;100.00
36726;BME280;44936;52.086;5.150;2023-08-31T08:31:52;99192.03;;;14.82;100.00
36726;BME280;44936;52.086;5.150;2023-08-31T08:34:42;99154.34;;;14.78;100.00
36726;BME280;44936;52.086;5.150;2023-08-31T08:37:07;99150.66;;;14.82;100.00
36726;BME280;44936;52.086;5.150;2023-08-31T08:39:38;99198.00;;;15.07;100.00
36726;BME280;44936;52.086;5.150;2023-08-31T08:42:25;99176.25;;;15.22;100.00
36726;BME280;44936;52.086;5.150;2023-08-31T08:45:36;99133.50;;;14.92;100.00
36726;BME280;44936;52.086;5.150;2023-08-31T08:48:23;99155.97;;;15.02;100.00
36726;BME280;44936;52.086;5.150;2023-08-31T08:50:49;99191.72;;;15.32;100.00
36726;BME280;44936;52.086;5.150;2023-08-31T08:53:15;99183.00;;;15.29;100.00
36726;BME280;44936;52.086;5.150;2023-08-31T08:55:41;99149.06;;;15.20;100.00
36726;BME280;44936;52.086;5.150;2023-08-31T08:58:14;99106.13;;;15.15;100.00
36726;BME280;44936;52.086;5.150;2023-08-31T09:00:42;99092.56;;;15.43;100.00
36726;BME280;44936;52.086;5.150;2023-08-31T09:03:42;99090.84;;;15.42;100.00
36726;BME280;44936;52.086;5.150;2023-08-31T09:06:07;99131.00;;;15.50;100.00
36726;BME280;44936;52.086;5.150;2023-08-31T09:09:02;99211.38;;;15.67;100.00
36726;BME280;44936;52.086;5.150;2023-08-31T09:11:39;99223.59;;;15.27;100.00
36726;BME280;44936;52.086;5.150;2023-08-31T09:14:18;99514.41;;;15.68;100.00
36726;BME280;44936;52.086;5.150;2023-08-31T09:17:30;99557.50;;;15.45;100.00
36726;BME280;44936;52.086;5.150;2023-08-31T09:20:10;99679.91;;;15.47;100.00
36726;BME280;44936;52.086;5.150;2023-08-31T09:22:42;99772.91;;;15.32;100.00
36726;BME280;44936;52.086;5.150;2023-08-31T09:25:16;99828.25;;;15.35;100.00
36726;BME280;44936;52.086;5.150;2023-08-31T09:27:42;99854.31;;;15.45;100.00
36726;BME280;44936;52.086;5.150;2023-08-31T09:30:18;99872.44;;;15.57;100.00
36726;BME280;44936;52.086;5.150;2023-08-31T09:32:52;99906.00;;;15.55;100.00
36726;BME280;44936;52.086;5.150;2023-08-31T09:35:30;100017.19;;;15.79;100.00
36726;BME280;44936;52.086;5.150;2023-08-31T09:38:17;100084.28;;;15.75;100.00
36726;BME280;44936;52.086;5.150;2023-08-31T09:41:17;100242.41;;;15.93;100.00
36726;BME280;44936;52.086;5.150;2023-08-31T09:43:50;100364.38;;;15.81;100.00
36726;BME280;44936;52.086;5.150;2023-08-31T09:49:02;100804.97;;;15.91;100.00
36726;BME280;44936;52.086;5.150;2023-08-31T09:51:59;100913.00;;;15.65;100.00
36726;BME280;44936;52.086;5.150;2023-08-31T09:54:51;101082.31;;;15.52;100.00
36726;BME280;44936;52.086;5.150;2023-08-31T09:57:20;101239.19;;;15.51;100.00
36726;BME280;44936;52.086;5.150;2023-08-31T09:59:45;101320.19;;;15.65;100.00
36726;BME280;44936;52.086;5.150;2023-08-31T10:02:17;101336.16;;;15.51;100.00
36726;BME280;44936;52.086;5.150;2023-08-31T10:04:49;101315.19;;;15.31;100.00
36726;BME280;44936;52.086;5.150;2023-08-31T10:07:20;101303.69;;;15.35;100.00
36726;BME280;44936;52.086;5.150;2023-08-31T10:09:52;101285.13;;;15.41;100.00
36726;BME280;44936;52.086;5.150;2023-08-31T10:12:30;101271.16;;;15.27;100.00
36726;BME280;44936;52.086;5.150;2023-08-31T10:15:19;101303.56;;;15.49;100.00
36726;BME280;44936;52.086;5.150;2023-08-31T10:17:51;101303.53;;;15.50;100.00
36726;BME280;44936;52.086;5.150;2023-08-31T10:20:42;101339.66;;;15.51;100.00
36726;BME280;44936;52.086;5.150;2023-08-31T10:23:09;101357.13;;;15.74;100.00
36726;BME280;44936;52.086;5.150;2023-08-31T10:28:39;101405.63;;;15.73;100.00
36726;BME280;44936;52.086;5.150;2023-08-31T10:31:18;101435.75;;;15.46;100.00
36726;BME280;44936;52.086;5.150;2023-08-31T10:34:06;101518.34;;;15.86;100.00
36726;BME280;44936;52.086;5.150;2023-08-31T10:36:38;101487.63;;;15.68;100.00
36726;BME280;44936;52.086;5.150;2023-08-31T10:39:17;101548.34;;;15.80;100.00
36726;BME280;44936;52.086;5.150;2023-08-31T10:41:55;101566.91;;;15.79;100.00
36726;BME280;44936;52.086;5.150;2023-08-31T10:44:22;101566.97;;;15.67;100.00
36726;BME280;44936;52.086;5.150;2023-08-31T10:46:49;101555.47;;;15.72;100.00
36726;BME280;44936;52.086;5.150;2023-08-31T10:49:19;101609.19;;;15.85;100.00
36726;BME280;44936;52.086;5.150;2023-08-31T10:51:55;101630.34;;;15.85;100.00
36726;BME280;44936;52.086;5.150;2023-08-31T10:56:53;101605.63;;;15.91;100.00
36726;BME280;44936;52.086;5.150;2023-08-31T10:59:22;101593.28;;;15.88;100.00
36726;BME280;44936;52.086;5.150;2023-08-31T11:02:06;101559.94;;;15.63;100.00
36726;BME280;44936;52.086;5.150;2023-08-31T11:04:55;101595.13;;;15.75;100.00
36726;BME280;44936;52.086;5.150;2023-08-31T11:07:42;101558.94;;;15.80;100.00
36726;BME280;44936;52.086;5.150;2023-08-31T11:10:21;101581.84;;;15.86;100.00
36726;BME280;44936;52.086;5.150;2023-08-31T11:15:48;101617.00;;;16.02;100.00
36726;BME280;44936;52.086;5.150;2023-08-31T11:18:20;101670.72;;;16.14;100.00
36726;BME280;44936;52.086;5.150;2023-08-31T11:20:54;101605.56;;;16.00;100.00
36726;BME280;44936;52.086;5.150;2023-08-31T11:23:47;101627.53;;;16.11;100.00
36726;BME280;44936;52.086;5.150;2023-08-31T11:26:12;101631.03;;;16.13;100.00
36726;BME280;44936;52.086;5.150;2023-08-31T11:28:46;101617.78;;;16.18;100.00
36726;BME280;44936;52.086;5.150;2023-08-31T11:31:11;101648.59;;;16.26;100.00
36726;BME280;44936;52.086;5.150;2023-08-31T11:33:39;101620.56;;;15.96;100.00
36726;BME280;44936;52.086;5.150;2023-08-31T11:36:07;101677.72;;;16.22;100.00
36726;BME280;44936;52.086;5.150;2023-08-31T11:38:35;101683.00;;;16.25;100.00
36726;BME280;44936;52.086;5.150;2023-08-31T11:41:00;101683.00;;;16.28;100.00
36726;BME280;44936;52.086;5.150;2023-08-31T11:43:26;101710.34;;;16.28;100.00
36726;BME280;44936;52.086;5.150;2023-08-31T11:46:10;101689.25;;;16.13;100.00
36726;BME280;44936;52.086;5.150;2023-08-31T11:48:41;101654.00;;;16.09;100.00
36726;BME280;44936;52.086;5.150;2023-08-31T11:51:07;101613.41;;;16.12;100.00
36726;BME280;44936;52.086;5.150;2023-08-31T11:53:35;101685.56;;;16.38;100.00
36726;BME280;44936;52.086;5.150;2023-08-31T11:56:02;101698.75;;;16.41;100.00
36726;BME280;44936;52.086;5.150;2023-08-31T11:58:27;101682.94;;;16.37;100.00
36726;BME280;44936;52.086;5.150;2023-08-31T12:00:57;101723.44;;;16.47;100.00
36726;BME280;44936;52.086;5.150;2023-08-31T12:03:23;101705.81;;;16.44;100.00
36726;BME280;44936;52.086;5.150;2023-08-31T12:05:51;101720.75;;;16.51;100.00
36726;BME280;44936;52.086;5.150;2023-08-31T12:08:26;101723.47;;;16.45;100.00
36726;BME280;44936;52.086;5.150;2023-08-31T12:10:52;101720.75;;;16.53;100.00
36726;BME280;44936;52.086;5.150;2023-08-31T12:13:18;101699.72;;;16.34;100.00
36726;BME280;44936;52.086;5.150;2023-08-31T12:15:43;101729.56;;;16.55;100.00
36726;BME280;44936;52.086;5.150;2023-08-31T12:18:13;101719.91;;;16.48;100.00
36726;BME280;44936;52.086;5.150;2023-08-31T12:20:44;101751.59;;;16.61;100.00
36726;BME280;44936;52.086;5.150;2023-08-31T12:23:09;101735.72;;;16.58;100.00
36726;BME280;44936;52.086;5.150;2023-08-31T12:25:35;101750.72;;;16.62;100.00
36726;BME280;44936;52.086;5.150;2023-08-31T12:28:02;101761.25;;;16.67;100.00
36726;BME280;44936;52.086;5.150;2023-08-31T12:30:28;101729.47;;;16.65;100.00
36726;BME280;44936;52.086;5.150;2023-08-31T12:32:54;101749.75;;;16.76;100.00
36726;BME280;44936;52.086;5.150;2023-08-31T12:35:24;101739.16;;;16.76;100.00
36726;BME280;44936;52.086;5.150;2023-08-31T12:37:50;101732.97;;;16.75;100.00
36726;BME280;44936;52.086;5.150;2023-08-31T12:40:15;101728.53;;;16.76;100.00
36726;BME280;44936;52.086;5.150;2023-08-31T12:42:44;101717.81;;;16.91;100.00
36726;BME280;44936;52.086;5.150;2023-08-31T12:45:09;101746.78;;;17.11;100.00
36726;BME280;44936;52.086;5.150;2023-08-31T12:47:37;101722.91;;;17.12;100.00
36726;BME280;44936;52.086;5.150;2023-08-31T12:50:03;101743.97;;;17.27;100.00
36726;BME280;44936;52.086;5.150;2023-08-31T12:52:29;101783.69;;;17.31;100.00
36726;BME280;44936;52.086;5.150;2023-08-31T12:54:54;101732.66;;;17.10;100.00
36726;BME280;44936;52.086;5.150;2023-08-31T12:57:19;101750.25;;;17.19;100.00
36726;BME280;44936;52.086;5.150;2023-08-31T12:59:45;101763.47;;;17.23;100.00
36726;BME280;44936;52.086;5.150;2023-08-31T13:02:10;101782.88;;;17.22;100.00
36726;BME280;44936;52.086;5.150;2023-08-31T13:04:38;101738.94;;;17.00;100.00
36726;BME280;44936;52.086;5.150;2023-08-31T13:07:06;101750.38;;;17.07;100.00
36726;BME280;44936;52.086;5.150;2023-08-31T13:09:33;101812.94;;;17.24;100.00
36726;BME280;44936;52.086;5.150;2023-08-31T13:11:59;101743.28;;;17.09;100.00